Time;durP1;ratioP1;P1;durP2;ratioP2;P2;SDS_P1;SDS_P2;PMS_P1;PMS_P2;Temp;Humidity;BMP_temperature;BMP_pressure;BME280_temperature;BME280_humidity;BME280_pressure;Samples;Min_cycle;Max_cycle;Signal;HPM_P1;HPM_P2
2024/01/23 00:01:56;;;;;;;16.45;3.55;;;;;;;6.73;100.00;101695.84;4955522;29;20031;-77
2024/01/23 00:04:21;;;;;;;13.52;3.70;;;;;;;6.76;100.00;101701.72;4955054;29;20043;-77
2024/01/23 00:06:46;;;;;;;14.73;3.13;;;;;;;6.82;100.00;101711.78;4955334;29;20118;-77
2024/01/23 00:09:12;;;;;;;19.50;3.63;;;;;;;6.83;100.00;101716.03;4955578;29;20158;-77
2024/01/23 00:11:37;;;;;;;14.25;3.17;;;;;;;6.83;100.00;101717.75;4955142;29;20383;-78
2024/01/23 00:14:03;;;;;;;16.88;3.35;;;;;;;6.83;100.00;101721.16;4954859;29;20055;-74
2024/01/23 00:16:28;;;;;;;17.13;3.97;;;;;;;6.75;100.00;101712.88;4954975;29;20490;-77
2024/01/23 00:18:53;;;;;;;15.07;3.25;;;;;;;6.73;100.00;101719.78;4954675;28;20381;-78
2024/01/23 00:21:18;;;;;;;13.70;3.33;;;;;;;6.85;100.00;101734.78;4955286;29;20035;-78
2024/01/23 00:23:44;;;;;;;16.75;3.88;;;;;;;6.85;100.00;101739.09;4955129;29;20050;-76
2024/01/23 00:26:09;;;;;;;14.35;3.28;;;;;;;6.86;100.00;101740.75;4954968;29;20117;-79
2024/01/23 00:28:35;;;;;;;19.42;3.38;;;;;;;6.87;100.00;101750.97;4955022;29;20388;-78
2024/01/23 00:31:00;;;;;;;12.48;3.53;;;;;;;6.84;100.00;101751.09;4954743;29;20038;-79
2024/01/23 00:33:25;;;;;;;17.42;3.63;;;;;;;6.78;100.00;101742.72;4954931;29;20037;-79
2024/01/23 00:35:50;;;;;;;14.85;3.45;;;;;;;6.86;100.00;101763.88;4954553;29;20130;-79
2024/01/23 00:38:16;;;;;;;14.10;3.47;;;;;;;6.87;100.00;101768.09;4954921;29;20565;-78
2024/01/23 00:40:41;;;;;;;10.27;3.10;;;;;;;6.86;100.00;101769.00;4955034;29;20023;-79
2024/01/23 00:43:07;;;;;;;15.18;3.15;;;;;;;6.87;100.00;101763.81;4954892;29;20035;-79
2024/01/23 00:45:32;;;;;;;15.27;3.00;;;;;;;6.88;100.00;101772.34;4954473;29;20110;-78
2024/01/23 00:47:57;;;;;;;13.40;3.30;;;;;;;6.86;100.00;101767.28;4954802;29;20078;-78
2024/01/23 00:50:23;;;;;;;14.80;2.97;;;;;;;6.78;100.00;101768.41;4954851;29;20046;-79
2024/01/23 00:52:48;;;;;;;16.70;3.70;;;;;;;6.81;100.00;101779.44;4954827;29;20094;-78
2024/01/23 00:55:13;;;;;;;16.92;3.45;;;;;;;6.77;100.00;101775.28;4952943;29;20506;-78
2024/01/23 00:57:39;;;;;;;13.32;3.28;;;;;;;6.65;100.00;101779.97;4954573;29;20027;-78
2024/01/23 01:00:05;;;;;;;13.63;3.05;;;;;;;6.78;100.00;101802.63;4954353;29;20050;-77
2024/01/23 01:02:32;;;;;;;16.38;3.63;;;;;;;6.77;100.00;101808.63;4954430;29;20031;-79
2024/01/23 01:04:57;;;;;;;14.25;3.10;;;;;;;6.60;100.00;101791.22;4954599;29;20027;-79
2024/01/23 01:07:23;;;;;;;19.13;3.50;;;;;;;6.68;100.00;101811.50;4954492;29;20098;-78
2024/01/23 01:09:48;;;;;;;18.73;3.58;;;;;;;6.48;100.00;101783.88;4954533;29;20047;-77
2024/01/23 01:12:13;;;;;;;14.80;3.25;;;;;;;6.54;100.00;101796.53;4954332;29;20534;-79
2024/01/23 01:14:39;;;;;;;13.55;2.97;;;;;;;6.30;100.00;101782.72;4954349;29;20495;-78
2024/01/23 01:17:04;;;;;;;26.05;4.00;;;;;;;6.18;100.00;101779.66;4954293;29;20376;-77
2024/01/23 01:19:30;;;;;;;16.73;3.30;;;;;;;6.35;100.00;101818.50;4954373;29;20090;-78
2024/01/23 01:21:55;;;;;;;21.08;4.07;;;;;;;6.28;100.00;101834.94;4954548;29;20023;-78
2024/01/23 01:24:21;;;;;;;17.17;3.70;;;;;;;6.24;100.00;101852.16;4954380;29;20043;-78
2024/01/23 01:26:46;;;;;;;19.70;3.38;;;;;;;6.20;100.00;101845.44;4953955;29;20137;-78
2024/01/23 01:29:11;;;;;;;15.07;3.65;;;;;;;6.12;100.00;101854.22;4954426;29;20127;-78
2024/01/23 01:31:36;;;;;;;17.83;3.80;;;;;;;5.82;100.00;101818.28;4956311;28;20507;-79
2024/01/23 01:34:02;;;;;;;17.33;3.75;;;;;;;6.00;100.00;101856.25;4957773;29;20058;-78
2024/01/23 01:36:28;;;;;;;19.35;3.83;;;;;;;6.02;100.00;101880.13;4958087;29;20371;-79
2024/01/23 01:38:56;;;;;;;16.88;3.30;;;;;;;5.99;100.00;101872.50;4958201;29;20379;-80
2024/01/23 01:41:21;;;;;;;15.98;3.47;;;;;;;5.98;100.00;101878.50;4957792;29;20031;-79
2024/01/23 01:43:46;;;;;;;17.55;4.07;;;;;;;5.94;100.00;101891.47;4957774;29;20075;-79
2024/01/23 01:46:20;;;;;;;17.90;3.65;;;;;;;5.91;100.00;101884.72;4958040;29;20441;-78
2024/01/23 01:48:46;;;;;;;15.20;3.10;;;;;;;5.73;100.00;101849.28;4956151;29;20608;-76
2024/01/23 01:51:12;;;;;;;23.77;4.47;;;;;;;5.89;100.00;101877.88;4957813;29;20024;-79
2024/01/23 01:53:39;;;;;;;17.63;3.72;;;;;;;5.93;100.00;101885.50;4956286;29;20081;-78
2024/01/23 01:56:06;;;;;;;18.05;3.75;;;;;;;5.93;100.00;101898.31;4957503;29;20444;-78
2024/01/23 01:58:32;;;;;;;18.98;3.72;;;;;;;5.92;100.00;101909.47;4957501;29;20037;-78
2024/01/23 02:01:00;;;;;;;15.07;3.53;;;;;;;5.80;100.00;101896.94;4957632;29;20110;-77
2024/01/23 02:03:27;;;;;;;17.00;3.75;;;;;;;5.79;100.00;101902.06;4956260;29;20086;-78
2024/01/23 02:05:53;;;;;;;17.75;4.60;;;;;;;5.80;100.00;101924.25;4957711;29;20023;-78
2024/01/23 02:08:20;;;;;;;18.00;3.53;;;;;;;5.74;100.00;101917.59;4957647;29;20098;-78
2024/01/23 02:10:45;;;;;;;18.60;3.95;;;;;;;5.70;100.00;101921.97;4957582;29;20027;-78
2024/01/23 02:13:10;;;;;;;15.65;4.07;;;;;;;5.67;100.00;101934.00;4957362;29;20039;-78
2024/01/23 02:15:36;;;;;;;16.65;3.50;;;;;;;5.67;100.00;101937.38;4957249;29;20074;-79
2024/01/23 02:18:01;;;;;;;19.77;3.30;;;;;;;5.62;100.00;101930.72;4957248;29;20027;-78
2024/01/23 02:20:27;;;;;;;16.67;3.90;;;;;;;5.53;100.00;101920.69;4957257;29;20023;-79
2024/01/23 02:22:53;;;;;;;16.58;3.30;;;;;;;5.60;100.00;101940.13;4957336;29;20479;-78
2024/01/23 02:25:18;;;;;;;20.33;4.22;;;;;;;5.52;100.00;101947.19;4957236;29;20058;-79
2024/01/23 02:27:44;;;;;;;17.88;3.75;;;;;;;5.42;100.00;101942.28;4957117;29;20106;-78
2024/01/23 02:30:10;;;;;;;19.00;3.55;;;;;;;5.57;100.00;101965.84;4957198;29;20031;-79
2024/01/23 02:32:35;;;;;;;15.10;3.40;;;;;;;5.43;100.00;101945.69;4956965;29;20023;-78
2024/01/23 02:35:01;;;;;;;14.32;3.63;;;;;;;5.58;100.00;101978.59;4956866;29;20450;-79
2024/01/23 02:37:26;;;;;;;15.05;3.33;;;;;;;5.52;100.00;101970.25;4956909;29;20080;-77
2024/01/23 02:39:52;;;;;;;21.48;5.07;;;;;;;5.47;100.00;101978.88;4956921;29;20050;-76
2024/01/23 02:42:18;;;;;;;16.35;3.58;;;;;;;5.29;100.00;101958.78;4955216;28;20476;-77
2024/01/23 02:44:45;;;;;;;15.43;3.35;;;;;;;5.45;100.00;101993.44;4956893;29;20027;-77
2024/01/23 02:47:11;;;;;;;20.63;3.38;;;;;;;5.38;100.00;101988.47;4956736;29;20035;-78
2024/01/23 02:49:37;;;;;;;19.80;3.85;;;;;;;5.19;100.00;101954.75;4956568;29;20039;-77
2024/01/23 02:52:03;;;;;;;12.82;3.35;;;;;;;5.43;100.00;102007.16;4956518;29;20372;-76
2024/01/23 02:54:31;;;;;;;17.20;3.72;;;;;;;5.46;100.00;102010.50;4956468;29;20034;-76
2024/01/23 02:56:56;;;;;;;14.63;2.97;;;;;;;5.44;100.00;102019.94;4956632;29;20066;-76
2024/01/23 02:59:21;;;;;;;17.05;4.25;;;;;;;5.44;100.00;102014.81;4956456;29;20054;-76
2024/01/23 03:01:47;;;;;;;16.67;3.53;;;;;;;5.42;100.00;102024.25;4956497;29;20118;-77
2024/01/23 03:04:12;;;;;;;19.58;3.67;;;;;;;5.15;100.00;101986.44;4956504;29;20395;-78
2024/01/23 03:06:37;;;;;;;20.30;4.57;;;;;;;5.37;100.00;102028.63;4956343;29;20472;-78
2024/01/23 03:09:03;;;;;;;17.70;4.20;;;;;;;5.22;100.00;102010.22;4956359;29;20025;-77
2024/01/23 03:11:28;;;;;;;23.15;4.72;;;;;;;5.41;100.00;102042.22;4956501;29;20349;-77
2024/01/23 03:13:54;;;;;;;20.23;3.55;;;;;;;5.43;100.00;102031.06;4956273;29;20035;-77
2024/01/23 03:16:20;;;;;;;19.00;4.05;;;;;;;5.36;100.00;102014.13;4956045;29;20070;-78
2024/01/23 03:18:46;;;;;;;17.25;4.18;;;;;;;5.31;100.00;102013.41;4956057;29;20035;-79
2024/01/23 03:21:11;;;;;;;22.42;4.22;;;;;;;5.47;100.00;102063.41;4956136;29;20062;-78
2024/01/23 03:23:37;;;;;;;19.40;4.18;;;;;;;5.35;100.00;102050.03;4954777;29;20055;-78
2024/01/23 03:26:02;;;;;;;18.00;4.10;;;;;;;5.43;100.00;102071.22;4956024;29;20035;-79
2024/01/23 03:28:28;;;;;;;17.20;3.40;;;;;;;5.38;100.00;102071.28;4955822;29;20027;-78
2024/01/23 03:30:53;;;;;;;22.55;4.93;;;;;;;5.35;100.00;102068.81;4955881;29;20379;-79
2024/01/23 03:33:19;;;;;;;21.13;4.45;;;;;;;5.31;100.00;102064.63;4954070;29;20392;-78
2024/01/23 03:35:44;;;;;;;22.75;4.78;;;;;;;5.31;100.00;102064.63;4955646;29;20128;-78
2024/01/23 03:38:11;;;;;;;18.02;3.92;;;;;;;5.31;100.00;102069.75;4955833;29;20030;-78
2024/01/23 03:40:36;;;;;;;19.35;3.55;;;;;;;5.26;100.00;102080.97;4955809;29;20028;-78
2024/01/23 03:43:01;;;;;;;19.80;3.47;;;;;;;5.19;100.00;102088.75;4955493;29;20054;-78
2024/01/23 03:45:27;;;;;;;16.85;3.55;;;;;;;5.00;100.00;102079.75;4955468;29;20035;-78
2024/01/23 03:47:52;;;;;;;19.23;4.30;;;;;;;5.04;100.00;102091.66;4955542;29;20034;-79
2024/01/23 03:50:17;;;;;;;16.92;4.00;;;;;;;5.10;100.00;102111.13;4955524;29;20031;-78
2024/01/23 03:52:43;;;;;;;21.55;4.18;;;;;;;4.94;100.00;102095.25;4955278;28;20050;-79
2024/01/23 03:55:08;;;;;;;18.98;4.07;;;;;;;4.99;100.00;102110.50;4955077;29;20032;-78
2024/01/23 03:57:33;;;;;;;19.27;3.80;;;;;;;5.12;100.00;102122.22;4955574;29;20539;-79
2024/01/23 03:59:59;;;;;;;19.20;4.22;;;;;;;5.10;100.00;102124.78;4955228;29;20027;-78
2024/01/23 04:02:25;;;;;;;24.25;4.07;;;;;;;4.96;100.00;102103.75;4955180;29;20031;-78
2024/01/23 04:04:51;;;;;;;17.08;3.80;;;;;;;5.02;100.00;102120.72;4955291;29;20024;-78
2024/01/23 04:07:16;;;;;;;18.38;4.25;;;;;;;5.02;100.00;102118.16;4955194;29;20015;-76
2024/01/23 04:09:42;;;;;;;21.75;4.32;;;;;;;5.01;100.00;102119.00;4955345;29;20027;-76
2024/01/23 04:12:07;;;;;;;22.63;4.78;;;;;;;4.88;100.00;102093.66;4955269;29;20038;-76
2024/01/23 04:14:33;;;;;;;19.75;4.68;;;;;;;4.96;100.00;102119.09;4954847;29;20090;-75
2024/01/23 04:16:58;;;;;;;20.58;4.55;;;;;;;4.62;100.00;102085.59;4955048;29;20027;-76
2024/01/23 04:19:23;;;;;;;23.95;4.95;;;;;;;4.87;100.00;102135.47;4955223;29;20019;-76
2024/01/23 04:21:49;;;;;;;17.77;3.88;;;;;;;4.86;100.00;102138.06;4954953;29;20485;-76
2024/01/23 04:24:14;;;;;;;22.80;4.22;;;;;;;4.81;100.00;102133.00;4953471;29;20035;-76
2024/01/23 04:26:46;;;;;;;17.67;4.97;;;;;;;4.81;100.00;102145.81;4954910;29;20101;-76
2024/01/23 04:29:11;;;;;;;19.75;4.18;;;;;;;4.69;100.00;102140.91;4954917;29;20027;-77
2024/01/23 04:31:37;;;;;;;22.65;4.22;;;;;;;4.78;100.00;102153.53;4954737;29;20027;-77
2024/01/23 04:34:02;;;;;;;21.15;4.28;;;;;;;4.63;100.00;102127.41;4954552;29;20496;-77
2024/01/23 04:36:27;;;;;;;20.33;4.63;;;;;;;4.78;100.00;102166.34;4954881;29;20039;-77
2024/01/23 04:38:53;;;;;;;21.30;4.32;;;;;;;4.77;100.00;102171.50;4954570;29;20036;-75
2024/01/23 04:41:18;;;;;;;17.15;4.45;;;;;;;4.75;100.00;102168.13;4954801;29;20106;-77
2024/01/23 04:46:19;;;;;;;20.27;4.07;;;;;;;4.65;100.00;102179.38;4995518;23;20055;-77
2024/01/23 04:48:46;;;;;;;19.55;5.00;;;;;;;4.70;100.00;102191.22;4973944;28;20073;-78
2024/01/23 04:51:12;;;;;;;19.90;3.85;;;;;;;4.58;100.00;102173.50;4973822;28;20042;-77
2024/01/23 04:53:37;;;;;;;22.27;5.00;;;;;;;4.53;100.00;102175.31;4973814;28;20034;-77
2024/01/23 04:56:03;;;;;;;27.85;4.38;;;;;;;4.52;100.00;102194.94;4973766;28;20394;-78
2024/01/23 04:58:29;;;;;;;24.35;4.20;;;;;;;4.55;100.00;102194.88;4973605;28;20106;-79
2024/01/23 05:00:54;;;;;;;24.30;4.43;;;;;;;4.63;100.00;102220.34;4973557;28;20038;-77
2024/01/23 05:03:20;;;;;;;16.58;3.83;;;;;;;4.53;100.00;102221.38;4973645;28;20038;-76
2024/01/23 05:05:45;;;;;;;22.10;4.30;;;;;;;4.55;100.00;102224.75;4973741;28;20089;-77
2024/01/23 05:08:11;;;;;;;19.40;3.97;;;;;;;4.46;100.00;102219.75;4973574;28;20391;-76
2024/01/23 05:10:36;;;;;;;20.73;4.50;;;;;;;4.35;100.00;102219.09;4973787;28;20027;-76
2024/01/23 05:13:01;;;;;;;22.30;4.80;;;;;;;4.49;100.00;102251.25;4973735;28;20092;-76
2024/01/23 05:15:27;;;;;;;16.08;3.33;;;;;;;4.41;100.00;102242.84;4973480;28;20027;-76
2024/01/23 05:17:53;;;;;;;18.33;4.03;;;;;;;4.51;100.00;102257.19;4973602;28;20057;-78
2024/01/23 05:20:18;;;;;;;18.67;3.50;;;;;;;4.56;100.00;102265.66;4973718;28;20033;-77
2024/01/23 05:22:43;;;;;;;20.33;4.10;;;;;;;4.54;100.00;102263.97;4973554;28;20037;-78
2024/01/23 05:25:09;;;;;;;20.05;3.85;;;;;;;4.42;100.00;102249.63;4973511;28;20113;-76
2024/01/23 05:27:35;;;;;;;18.52;3.72;;;;;;;4.47;100.00;102259.81;4973545;28;20108;-76
2024/01/23 05:30:04;;;;;;;19.50;4.82;;;;;;;4.47;100.00;102273.44;4973342;28;20039;-78
2024/01/23 05:32:29;;;;;;;20.98;4.20;;;;;;;4.44;100.00;102273.50;4973471;28;20059;-78
2024/01/23 05:34:54;;;;;;;19.35;4.30;;;;;;;4.34;100.00;102269.38;4973432;28;20117;-76
2024/01/23 05:37:20;;;;;;;19.58;3.97;;;;;;;4.43;100.00;102292.28;4973536;28;20357;-76
2024/01/23 05:39:46;;;;;;;20.80;4.47;;;;;;;4.35;100.00;102288.13;4971643;28;20041;-77
2024/01/23 05:42:11;;;;;;;22.58;4.55;;;;;;;4.40;100.00;102306.81;4973410;28;20058;-77
2024/01/23 05:44:36;;;;;;;28.70;4.80;;;;;;;4.36;100.00;102316.25;4971506;28;20057;-77
2024/01/23 05:47:02;;;;;;;17.45;4.28;;;;;;;4.31;100.00;102315.44;4955829;28;20027;-76
2024/01/23 05:49:27;;;;;;;18.40;3.70;;;;;;;4.21;100.00;102301.94;4973278;28;20494;-76
2024/01/23 05:51:52;;;;;;;19.17;3.80;;;;;;;4.35;100.00;102341.84;4972041;28;20031;-76
2024/01/23 05:54:18;;;;;;;16.70;4.18;;;;;;;4.24;100.00;102330.03;4973046;28;20023;-76
2024/01/23 05:56:43;;;;;;;21.00;4.25;;;;;;;4.32;100.00;102351.22;4973275;28;20496;-76
2024/01/23 05:59:08;;;;;;;24.42;4.03;;;;;;;4.27;100.00;102350.44;4973344;28;20038;-76
2024/01/23 06:01:34;;;;;;;17.50;4.07;;;;;;;4.21;100.00;102342.84;4973060;28;20030;-76
2024/01/23 06:04:00;;;;;;;19.45;4.68;;;;;;;4.03;100.00;102332.81;4973285;28;20386;-76
2024/01/23 06:06:26;;;;;;;20.75;4.32;;;;;;;4.00;100.00;102332.88;4973183;28;20057;-76
2024/01/23 06:08:51;;;;;;;22.23;4.25;;;;;;;4.12;100.00;102353.16;4973147;28;20031;-77
2024/01/23 06:11:17;;;;;;;20.90;4.68;;;;;;;4.02;100.00;102337.09;4955719;28;20093;-76
2024/01/23 06:13:43;;;;;;;25.33;4.25;;;;;;;4.08;100.00;102345.56;4973311;28;20033;-78
2024/01/23 06:16:09;;;;;;;22.30;4.45;;;;;;;4.08;100.00;102351.53;4973024;28;20390;-78
2024/01/23 06:18:35;;;;;;;23.48;4.78;;;;;;;4.09;100.00;102352.38;4976645;28;20023;-78
2024/01/23 06:21:02;;;;;;;18.65;3.63;;;;;;;4.01;100.00;102349.91;4976528;28;20542;-77
2024/01/23 06:23:27;;;;;;;19.15;4.32;;;;;;;3.94;100.00;102351.69;4976344;28;20034;-78
2024/01/23 06:25:53;;;;;;;18.38;4.07;;;;;;;3.80;100.00;102339.91;4976362;28;20153;-76
2024/01/23 06:28:18;;;;;;;20.75;4.22;;;;;;;3.99;100.00;102374.63;4976731;28;20034;-76
2024/01/23 06:30:43;;;;;;;20.55;3.78;;;;;;;3.81;100.00;102351.81;4976429;28;20102;-78
2024/01/23 06:33:09;;;;;;;20.70;3.80;;;;;;;3.95;100.00;102384.06;4976318;28;20058;-77
2024/01/23 06:35:34;;;;;;;23.10;3.83;;;;;;;3.93;100.00;102393.44;4976070;28;20029;-77
2024/01/23 06:37:59;;;;;;;17.90;3.78;;;;;;;3.79;100.00;102368.88;4976283;28;20026;-77
2024/01/23 06:40:25;;;;;;;17.98;3.55;;;;;;;3.93;100.00;102397.69;4976228;28;20094;-77
2024/01/23 06:42:50;;;;;;;22.08;4.28;;;;;;;3.69;100.00;102361.31;4976164;28;20023;-77
2024/01/23 06:45:15;;;;;;;20.70;4.55;;;;;;;3.82;100.00;102382.47;4976265;28;20062;-78
2024/01/23 06:47:41;;;;;;;25.15;4.82;;;;;;;3.90;100.00;102384.94;4976007;28;20082;-78
2024/01/23 06:50:08;;;;;;;18.83;4.78;;;;;;;3.90;100.00;102390.06;4976005;28;20031;-76
2024/01/23 06:52:33;;;;;;;25.13;4.65;;;;;;;3.88;100.00;102402.84;4976055;28;20443;-76
2024/01/23 06:54:59;;;;;;;23.45;3.85;;;;;;;3.89;100.00;102401.16;4975840;28;20034;-76
2024/01/23 06:57:24;;;;;;;26.85;4.75;;;;;;;3.88;100.00;102407.97;4975755;28;20570;-76
2024/01/23 06:59:50;;;;;;;15.80;4.25;;;;;;;3.87;100.00;102415.66;4976009;28;20031;-75
2024/01/23 07:02:15;;;;;;;23.38;5.10;;;;;;;3.82;100.00;102417.38;4975831;28;20026;-75
2024/01/23 07:04:41;;;;;;;21.85;4.40;;;;;;;3.81;100.00;102423.38;4975549;28;20034;-76
2024/01/23 07:07:06;;;;;;;22.75;4.93;;;;;;;3.78;100.00;102431.91;4975768;28;20121;-76
2024/01/23 07:09:32;;;;;;;22.65;4.90;;;;;;;3.74;100.00;102417.50;4975681;28;20037;-78
2024/01/23 07:11:57;;;;;;;23.45;4.20;;;;;;;3.82;100.00;102422.50;4973581;28;20033;-77
2024/01/23 07:14:22;;;;;;;22.35;4.18;;;;;;;3.77;100.00;102414.91;4976195;28;20031;-74
2024/01/23 07:16:48;;;;;;;18.15;4.47;;;;;;;3.73;100.00;102416.63;4975858;28;20387;-76
2024/01/23 07:19:13;;;;;;;24.67;4.93;;;;;;;3.75;100.00;102416.63;4975613;28;20038;-75
2024/01/23 07:21:40;;;;;;;16.42;4.28;;;;;;;3.78;100.00;102420.84;4958191;28;20023;-76
2024/01/23 07:24:06;;;;;;;24.40;4.43;;;;;;;3.84;100.00;102431.03;4975321;28;20027;-75
2024/01/23 07:26:32;;;;;;;23.45;4.47;;;;;;;3.85;100.00;102438.69;4975294;28;20383;-75
2024/01/23 07:28:57;;;;;;;23.70;4.50;;;;;;;3.68;100.00;102413.28;4974064;28;20058;-73
2024/01/23 07:31:22;;;;;;;20.60;4.68;;;;;;;3.64;100.00;102411.63;4974988;28;20027;-77
2024/01/23 07:33:48;;;;;;;23.23;4.55;;;;;;;3.78;100.00;102436.19;4975098;28;20074;-80
2024/01/23 07:36:14;;;;;;;21.42;4.47;;;;;;;3.85;100.00;102458.28;4975192;28;20486;-78
2024/01/23 07:38:39;;;;;;;22.30;4.50;;;;;;;3.77;100.00;102462.59;4974971;28;20463;-79
2024/01/23 07:41:04;;;;;;;21.85;4.45;;;;;;;3.79;100.00;102473.66;4975019;28;20042;-77
2024/01/23 07:43:29;;;;;;;21.40;3.65;;;;;;;3.51;100.00;102427.03;4974160;28;20073;-78
2024/01/23 07:45:55;;;;;;;25.35;4.90;;;;;;;3.76;100.00;102471.13;4974992;28;20287;-77
2024/01/23 07:48:20;;;;;;;22.67;5.00;;;;;;;3.61;100.00;102451.66;4975372;28;20034;-76
2024/01/23 07:50:46;;;;;;;17.73;4.38;;;;;;;3.71;100.00;102463.47;4973736;28;20026;-78
2024/01/23 07:53:12;;;;;;;28.73;5.78;;;;;;;3.77;100.00;102468.56;4974700;28;20034;-76
2024/01/23 07:55:37;;;;;;;24.42;5.10;;;;;;;3.83;100.00;102471.03;4974606;28;20147;-77
2024/01/23 07:58:03;;;;;;;21.00;3.75;;;;;;;3.87;100.00;102471.88;4974543;28;20066;-78
2024/01/23 08:00:28;;;;;;;19.67;4.15;;;;;;;3.82;100.00;102469.34;4974336;28;20027;-78
2024/01/23 08:02:53;;;;;;;23.65;3.70;;;;;;;3.85;100.00;102483.81;4974350;28;20038;-78
2024/01/23 08:05:19;;;;;;;23.67;4.03;;;;;;;3.68;100.00;102463.50;4974633;28;20023;-75
2024/01/23 08:07:44;;;;;;;22.10;4.47;;;;;;;3.81;100.00;102500.88;4974494;28;20109;-77
2024/01/23 08:10:10;;;;;;;18.85;3.90;;;;;;;3.80;100.00;102509.41;4974509;28;20051;-77
2024/01/23 08:12:36;;;;;;;22.17;5.15;;;;;;;3.84;100.00;102516.19;4974371;28;20026;-77
2024/01/23 08:15:01;;;;;;;20.10;5.03;;;;;;;3.85;100.00;102517.06;4974116;28;20023;-77
2024/01/23 08:17:27;;;;;;;23.08;4.28;;;;;;;3.79;100.00;102520.47;4974183;28;20029;-77
2024/01/23 08:19:52;;;;;;;22.33;5.78;;;;;;;3.62;100.00;102500.16;4974265;28;20431;-78
2024/01/23 08:22:17;;;;;;;18.08;4.32;;;;;;;3.85;100.00;102534.94;4974432;28;20102;-79
2024/01/23 08:24:43;;;;;;;26.25;5.43;;;;;;;3.88;100.00;102540.00;4974298;28;20395;-79
2024/01/23 08:27:08;;;;;;;22.88;4.55;;;;;;;3.90;100.00;102535.72;4974259;28;20031;-78
2024/01/23 08:29:34;;;;;;;21.83;4.65;;;;;;;3.85;100.00;102525.56;4974040;28;20031;-79
2024/01/23 08:32:00;;;;;;;19.10;4.63;;;;;;;3.96;100.00;102551.03;4974025;28;20030;-78
2024/01/23 08:34:25;;;;;;;25.25;5.30;;;;;;;3.83;100.00;102523.84;4974051;28;20582;-78
2024/01/23 08:36:51;;;;;;;23.67;5.18;;;;;;;4.02;100.00;102553.53;4974204;28;20035;-78
2024/01/23 08:39:16;;;;;;;26.00;5.30;;;;;;;3.72;100.00;102512.00;4955720;28;20471;-82
2024/01/23 08:41:41;;;;;;;21.30;5.10;;;;;;;4.06;100.00;102568.00;4972542;28;20514;-82
2024/01/23 08:44:07;;;;;;;22.00;5.03;;;;;;;4.10;100.00;102579.03;4974492;28;20098;-85
2024/01/23 08:46:33;;;;;;;21.65;5.32;;;;;;;4.10;100.00;102579.88;4956889;28;20034;-84
2024/01/23 08:48:58;;;;;;;18.95;4.63;;;;;;;3.42;100.00;102464.53;4973942;28;20031;-84
2024/01/23 08:51:24;;;;;;;18.88;4.70;;;;;;;4.13;100.00;102582.44;4973671;28;20455;-83
2024/01/23 08:53:52;;;;;;;28.25;4.95;;;;;;;3.28;100.00;102440.84;4973762;28;20105;-86
2024/01/23 08:56:20;;;;;;;26.25;5.50;;;;;;;4.19;100.00;102584.91;4973723;28;20034;-83
2024/01/23 08:58:47;;;;;;;25.70;5.35;;;;;;;3.81;100.00;102511.09;4973666;28;20030;-83
2024/01/23 09:01:12;;;;;;;24.98;5.10;;;;;;;4.23;100.00;102576.38;4973735;28;20031;-81
2024/01/23 09:03:37;;;;;;;21.63;4.45;;;;;;;4.27;100.00;102582.31;4973385;28;20085;-83
2024/01/23 09:06:07;;;;;;;29.55;5.25;;;;;;;4.16;100.00;102561.94;4973850;28;20054;-83
2024/01/23 09:08:32;;;;;;;22.40;4.93;;;;;;;4.35;100.00;102575.41;4973598;28;20034;-82
2024/01/23 09:10:57;;;;;;;24.85;4.90;;;;;;;4.24;100.00;102551.66;4973421;28;20023;-82
2024/01/23 09:13:23;;;;;;;31.45;5.43;;;;;;;4.23;100.00;102548.25;4956258;28;20126;-81
2024/01/23 09:15:48;;;;;;;21.35;5.40;;;;;;;4.39;100.00;102564.28;4973476;28;20470;-81
2024/01/23 09:18:13;;;;;;;24.00;4.82;;;;;;;4.38;100.00;102562.59;4971868;28;20464;-81
2024/01/23 09:20:39;;;;;;;20.05;5.18;;;;;;;4.49;100.00;102578.69;4973299;28;20022;-81
2024/01/23 09:23:04;;;;;;;21.50;4.85;;;;;;;4.25;100.00;102527.78;4973212;28;20027;-80
2024/01/23 09:25:29;;;;;;;24.48;4.65;;;;;;;4.47;100.00;102567.63;4973498;28;20046;-80
2024/01/23 09:27:56;;;;;;;20.05;4.85;;;;;;;4.60;100.00;102573.44;4973641;28;20475;-81
2024/01/23 09:30:28;;;;;;;19.05;4.50;;;;;;;3.65;100.00;102404.78;4973480;23;20051;-82
2024/01/23 09:32:53;;;;;;;22.73;4.82;;;;;;;3.93;100.00;102436.03;4936483;29;20050;-82
2024/01/23 09:35:18;;;;;;;23.65;4.50;;;;;;;4.72;100.00;102564.78;4968624;28;20027;-77
2024/01/23 09:37:44;;;;;;;22.67;4.72;;;;;;;4.71;100.00;102546.03;4956239;28;20561;-79
2024/01/23 09:40:10;;;;;;;26.35;5.10;;;;;;;4.73;100.00;102559.69;4973378;28;20494;-76
2024/01/23 09:46:08;;;;;;;20.00;4.75;;;;;;;4.11;100.00;102427.31;5095072;23;20058;-79
2024/01/23 09:48:33;;;;;;;22.88;4.70;;;;;;;4.26;100.00;102445.06;4972424;28;20050;-79
2024/01/23 09:51:34;;;;;;;23.95;5.57;;;;;;;5.14;100.00;102577.13;4971981;28;20038;-81
2024/01/23 09:54:00;;;;;;;18.77;5.15;;;;;;;4.69;100.00;102499.16;4976677;28;20031;-81
2024/01/23 09:56:39;;;;;;;18.63;4.60;;;;;;;4.23;100.00;102407.63;4958127;23;20062;-79
2024/01/23 09:59:17;;;;;;;18.55;4.53;;;;;;;4.75;100.00;102495.69;4989973;23;20004;-81
2024/01/23 10:01:43;;;;;;;19.15;5.22;;;;;;;4.91;100.00;102522.75;4974754;23;20055;-81
2024/01/23 10:04:15;;;;;;;18.05;4.28;;;;;;;4.91;100.00;102512.53;4959194;28;20033;-81
2024/01/23 10:06:41;;;;;;;21.17;4.60;;;;;;;4.87;100.00;102496.38;4976560;28;20049;-81
2024/01/23 10:09:22;;;;;;;19.40;4.60;;;;;;;5.01;100.00;102526.06;4976757;28;20042;-82
2024/01/23 10:11:50;;;;;;;19.92;4.60;;;;;;;4.33;100.00;102413.47;4976604;28;20018;-81
2024/01/23 10:14:16;;;;;;;19.25;4.88;;;;;;;5.35;100.00;102585.38;4983292;23;20438;-80
2024/01/23 10:16:42;;;;;;;26.48;5.65;;;;;;;5.33;100.00;102575.16;4976450;28;20027;-81
2024/01/23 10:19:13;;;;;;;18.35;4.85;;;;;;;4.86;100.00;102494.69;4976166;28;20062;-81
2024/01/23 10:21:40;;;;;;;20.90;5.28;;;;;;;5.25;100.00;102561.59;4976373;28;20023;-81
2024/01/23 10:24:06;;;;;;;22.70;4.90;;;;;;;5.45;100.00;102590.38;4976528;28;20023;-81
2024/01/23 10:26:46;;;;;;;23.50;4.43;;;;;;;4.23;100.00;102392.28;4976504;28;20034;-82
2024/01/23 10:29:14;;;;;;;20.42;5.63;;;;;;;4.67;100.00;102443.75;4976349;28;20110;-82
2024/01/23 10:31:47;;;;;;;20.42;5.03;;;;;;;4.90;100.00;102472.44;4976371;28;20034;-83
2024/01/23 10:34:31;;;;;;;20.73;5.10;;;;;;;5.18;100.00;102507.06;4991642;23;20059;-83
2024/01/23 10:36:58;;;;;;;24.23;4.68;;;;;;;5.28;100.00;102522.28;4976003;28;20053;-80
2024/01/23 10:39:24;;;;;;;24.83;5.10;;;;;;;5.40;100.00;102555.41;4969623;23;20498;-85
2024/01/23 10:42:04;;;;;;;18.88;5.15;;;;;;;4.82;100.00;102435.88;4976247;28;20027;-82
2024/01/23 10:44:30;;;;;;;23.88;5.03;;;;;;;6.00;100.00;102602.44;4976060;28;20027;-81
2024/01/23 10:46:59;;;;;;;20.25;4.95;;;;;;;6.07;100.00;102598.03;4958816;28;20019;-82
2024/01/23 10:49:24;;;;;;;21.20;4.50;;;;;;;5.85;100.00;102543.66;4958037;28;20479;-80
2024/01/23 10:51:53;;;;;;;24.63;5.07;;;;;;;5.79;100.00;102528.34;4975911;28;20105;-80
2024/01/23 10:54:37;;;;;;;19.30;4.63;;;;;;;5.84;100.00;102526.59;4975808;28;20042;-80
2024/01/23 10:57:08;;;;;;;20.00;4.78;;;;;;;6.00;100.00;102555.44;4975715;28;20102;-82
2024/01/23 10:59:38;;;;;;;20.88;4.85;;;;;;;6.15;100.00;102578.25;4975890;28;20051;-80
2024/01/23 11:02:22;;;;;;;17.90;4.80;;;;;;;6.36;100.00;102589.00;4975517;28;20031;-82
2024/01/23 11:04:50;;;;;;;18.15;4.10;;;;;;;6.37;100.00;102558.19;4975179;28;20034;-81
2024/01/23 11:07:23;;;;;;;21.38;4.20;;;;;;;6.61;100.00;102583.44;4975418;28;20045;-78
2024/01/23 11:10:20;;;;;;;17.65;4.47;;;;;;;5.96;100.00;102461.47;4972860;28;20038;-79
2024/01/23 11:13:06;;;;;;;20.83;4.55;;;;;;;6.71;100.00;102571.28;4975570;28;20054;-79
2024/01/23 11:15:31;;;;;;;18.67;4.57;;;;;;;6.35;100.00;102474.44;4975354;28;20077;-76
2024/01/23 11:18:34;;;;;;;20.90;4.95;;;;;;;6.84;100.00;102541.06;4975159;28;20459;-79
2024/01/23 11:21:22;;;;;;;19.60;4.63;;;;;;;6.77;100.00;102521.50;4975182;28;20023;-76